Time;durP1;ratioP1;P1;durP2;ratioP2;P2;SDS_P1;SDS_P2;PMS_P1;PMS_P2;Temp;Humidity;BMP_temperature;BMP_pressure;BME280_temperature;BME280_humidity;BME280_pressure;Samples;Min_cycle;Max_cycle;Signal;HPM_P1;HPM_P2
2020/12/19 00:00:00;;;;;;;28.23;14.30;;;;;;;7.17;74.59;101519.22;5053613;22;20050;-80
2020/12/19 00:02:26;;;;;;;27.70;15.25;;;;;;;7.17;74.79;101513.94;5027544;28;20061;-81
2020/12/19 00:04:52;;;;;;;28.70;15.35;;;;;;;7.18;74.70;101525.38;5026428;28;20433;-81
2020/12/19 00:07:18;;;;;;;29.60;14.43;;;;;;;7.17;74.84;101516.56;5033109;28;20505;-80
2020/12/19 00:09:44;;;;;;;29.08;15.75;;;;;;;7.16;74.63;101517.50;5041476;28;20057;-81
2020/12/19 00:12:20;;;;;;;27.02;14.07;;;;;;;7.17;74.86;101513.94;5046762;28;20042;-81
2020/12/19 00:14:46;;;;;;;27.58;15.30;;;;;;;7.17;74.54;101513.94;5032992;28;20452;-80
2020/12/19 00:17:13;;;;;;;31.40;15.98;;;;;;;7.17;74.70;101507.81;5022648;28;20041;-81
2020/12/19 00:19:39;;;;;;;32.67;16.52;;;;;;;7.15;74.85;101505.22;5047762;28;20127;-81
2020/12/19 00:22:05;;;;;;;32.92;16.10;;;;;;;7.12;74.75;101501.75;5032173;28;20053;-80
2020/12/19 00:24:31;;;;;;;31.20;15.38;;;;;;;7.11;74.44;101495.63;5035864;28;20057;-80
2020/12/19 00:26:58;;;;;;;32.28;16.42;;;;;;;7.10;75.12;101496.56;5013963;28;20042;-80
2020/12/19 00:29:43;;;;;;;30.83;15.90;;;;;;;7.12;75.29;101500.03;5042767;28;20509;-80
2020/12/19 00:32:27;;;;;;;33.95;15.45;;;;;;;7.13;75.01;101496.47;5029002;28;20430;-80
2020/12/19 00:35:12;;;;;;;27.05;14.73;;;;;;;7.12;75.19;101494.75;5033692;28;20106;-81
2020/12/19 00:37:57;;;;;;;30.17;15.50;;;;;;;7.14;75.18;101492.97;5029641;28;20057;-81
2020/12/19 00:40:23;;;;;;;28.83;16.05;;;;;;;7.16;75.50;101490.28;5031090;28;20061;-80
2020/12/19 00:42:49;;;;;;;30.80;15.73;;;;;;;7.18;75.27;101489.34;5012422;28;20057;-80
2020/12/19 00:45:15;;;;;;;31.83;16.33;;;;;;;7.20;75.10;101487.56;5045088;28;20046;-80
2020/12/19 00:47:41;;;;;;;32.70;16.63;;;;;;;7.18;75.17;101478.81;5027909;28;20034;-81
2020/12/19 00:50:08;;;;;;;27.00;16.02;;;;;;;7.20;75.21;101479.66;5012346;28;20084;-80
2020/12/19 00:52:35;;;;;;;31.70;16.13;;;;;;;7.21;75.03;101478.75;5030419;28;20503;-81
2020/12/19 00:55:01;;;;;;;32.40;16.58;;;;;;;7.22;75.12;101475.22;5032333;28;20073;-80
2020/12/19 00:57:31;;;;;;;29.15;15.65;;;;;;;7.22;75.21;101469.94;5041061;28;20050;-80
2020/12/19 01:00:00;;;;;;;32.85;16.65;;;;;;;7.22;75.02;101469.94;5042118;28;20029;-81
2020/12/19 01:02:26;;;;;;;33.88;16.00;;;;;;;7.24;75.14;101461.16;5032876;28;20464;-80
2020/12/19 01:05:10;;;;;;;31.27;16.45;;;;;;;7.24;74.94;101453.25;5027167;28;20097;-81
2020/12/19 01:07:37;;;;;;;29.73;15.70;;;;;;;7.26;75.07;101459.34;5012611;28;20041;-80
2020/12/19 01:10:06;;;;;;;34.90;16.58;;;;;;;7.28;74.99;101457.56;5009196;28;20060;-81
2020/12/19 01:12:33;;;;;;;27.60;14.70;;;;;;;7.26;74.88;101456.72;5025149;28;20068;-80
2020/12/19 01:14:59;;;;;;;28.55;15.68;;;;;;;7.26;74.91;101452.31;5009356;28;20041;-81
2020/12/19 01:17:25;;;;;;;28.05;15.85;;;;;;;7.30;75.11;101451.34;5030015;28;20045;-80
2020/12/19 01:19:51;;;;;;;30.48;15.70;;;;;;;7.33;75.04;101455.69;5018655;28;20045;-81
2020/12/19 01:22:17;;;;;;;31.55;15.88;;;;;;;7.34;75.09;101454.78;5042982;28;20067;-81
2020/12/19 01:24:43;;;;;;;32.58;15.27;;;;;;;7.34;74.98;101452.13;5040179;28;20112;-81
2020/12/19 01:27:09;;;;;;;31.35;15.80;;;;;;;7.33;74.58;101450.41;5044639;28;20133;-80
2020/12/19 01:29:35;;;;;;;29.73;15.50;;;;;;;7.31;75.04;101446.91;5044607;28;20048;-81
2020/12/19 01:32:01;;;;;;;30.63;16.13;;;;;;;7.31;75.09;101449.56;5021836;28;20116;-81
2020/12/19 01:34:27;;;;;;;28.25;16.20;;;;;;;7.29;74.61;101452.25;5018164;28;20048;-80
2020/12/19 01:36:53;;;;;;;29.08;15.38;;;;;;;7.27;74.70;101445.25;5022430;28;20128;-81
2020/12/19 01:39:19;;;;;;;29.27;17.33;;;;;;;7.27;74.84;101450.53;5004443;28;20050;-81
2020/12/19 01:41:45;;;;;;;35.28;16.80;;;;;;;7.22;74.79;101448.88;5032040;28;20477;-81
2020/12/19 01:44:11;;;;;;;29.88;15.80;;;;;;;7.20;74.73;101445.41;5039841;28;20113;-81
2020/12/19 01:46:46;;;;;;;33.83;17.88;;;;;;;7.16;74.74;101438.47;5024648;28;20048;-81
2020/12/19 01:49:12;;;;;;;;;;;;;;;7.11;74.54;101445.59;5030567;28;20174;-81
2020/12/19 01:51:39;;;;;;;30.17;15.65;;;;;;;7.07;74.60;101443.94;5050580;28;19921;-80
2020/12/19 01:54:08;;;;;;;34.00;17.13;;;;;;;7.04;74.86;101443.97;5046688;28;20053;-80
2020/12/19 01:56:55;;;;;;;38.00;17.85;;;;;;;7.02;74.93;101435.25;5025652;28;20068;-81
2020/12/19 01:59:23;;;;;;;36.85;17.67;;;;;;;7.00;75.02;101437.03;5035708;28;20064;-81
2020/12/19 02:01:57;;;;;;;35.60;18.75;;;;;;;6.97;74.51;101437.13;5028240;28;20046;-81
2020/12/19 02:04:25;;;;;;;36.08;19.02;;;;;;;6.91;74.47;101442.50;5043886;28;20073;-81
2020/12/19 02:06:53;;;;;;;38.83;18.58;;;;;;;6.88;74.75;101442.59;5025159;28;20133;-80
2020/12/19 02:09:27;;;;;;;38.83;18.48;;;;;;;6.85;74.70;101437.38;5027874;28;20037;-80
2020/12/19 02:11:54;;;;;;;44.58;19.00;;;;;;;6.83;75.00;101440.88;5011052;28;20044;-80
2020/12/19 02:14:21;;;;;;;38.13;18.27;;;;;;;6.84;74.92;101433.88;5029851;28;20042;-80
2020/12/19 02:16:57;;;;;;;41.13;19.50;;;;;;;6.83;75.07;101425.09;5032308;28;20064;-80
2020/12/19 02:19:23;;;;;;;43.90;19.02;;;;;;;6.83;74.85;101425.09;5031271;28;20042;-80
2020/12/19 02:21:50;;;;;;;46.25;20.10;;;;;;;6.82;75.18;101425.13;5034610;28;20045;-80
2020/12/19 02:24:16;;;;;;;45.60;19.52;;;;;;;6.80;74.92;101425.16;5029154;28;20046;-80
2020/12/19 02:26:47;;;;;;;45.88;19.98;;;;;;;6.79;74.65;101423.41;5032682;28;20045;-80
2020/12/19 02:29:14;;;;;;;44.00;19.23;;;;;;;6.76;74.61;101423.50;5041996;28;20106;-80
2020/12/19 02:31:40;;;;;;;44.85;20.40;;;;;;;6.75;74.84;101421.75;5033277;28;20045;-80
2020/12/19 02:34:06;;;;;;;39.13;19.20;;;;;;;6.77;74.98;101419.94;5032719;28;20042;-80
2020/12/19 02:36:32;;;;;;;48.80;19.88;;;;;;;6.77;74.81;101409.41;5044868;28;20129;-80
2020/12/19 02:38:58;;;;;;;41.65;19.55;;;;;;;6.77;75.18;101414.69;5046398;28;20109;-80
2020/12/19 02:41:24;;;;;;;41.55;19.13;;;;;;;6.77;74.81;101414.69;5046172;28;20121;-80
2020/12/19 02:43:52;;;;;;;42.88;20.15;;;;;;;6.74;74.85;101404.25;5033594;28;20040;-80
2020/12/19 02:46:19;;;;;;;41.50;19.33;;;;;;;6.75;75.17;101400.69;5030588;28;20050;-80
2020/12/19 02:48:45;;;;;;;48.17;20.75;;;;;;;6.77;75.37;101403.28;5031525;28;20068;-81
2020/12/19 02:51:11;;;;;;;45.60;20.05;;;;;;;6.76;75.19;101407.69;5029319;28;20069;-81
2020/12/19 02:53:37;;;;;;;44.15;19.70;;;;;;;6.73;75.17;101397.22;5027420;28;20050;-81
2020/12/19 02:56:03;;;;;;;42.95;19.80;;;;;;;6.75;75.30;101398.06;5028853;28;20041;-80
2020/12/19 02:58:29;;;;;;;40.65;19.55;;;;;;;6.73;74.97;101397.22;5012855;28;20076;-81
2020/12/19 03:00:55;;;;;;;42.03;20.05;;;;;;;6.73;74.99;101394.59;5028733;28;20073;-80
2020/12/19 03:03:21;;;;;;;40.35;19.70;;;;;;;6.74;75.14;101388.44;5044568;28;20038;-80
2020/12/19 03:05:47;;;;;;;38.92;18.98;;;;;;;6.76;75.20;101391.00;5027985;28;20058;-80
2020/12/19 03:08:13;;;;;;;42.45;19.58;;;;;;;6.76;74.90;101386.66;5044502;28;20460;-81
2020/12/19 03:10:39;;;;;;;40.95;18.38;;;;;;;6.78;75.14;101386.59;5046653;28;20038;-80
2020/12/19 03:13:05;;;;;;;34.00;18.08;;;;;;;6.80;75.23;101388.31;5043967;28;20044;-81
2020/12/19 03:15:32;;;;;;;40.47;19.25;;;;;;;6.82;75.24;101397.03;5020360;28;20064;-81
2020/12/19 03:17:58;;;;;;;40.58;19.10;;;;;;;6.82;75.04;101380.38;5020146;28;20034;-80
2020/12/19 03:20:24;;;;;;;39.15;17.65;;;;;;;6.81;74.98;101387.38;5030668;28;20057;-80
2020/12/19 03:22:50;;;;;;;41.55;19.50;;;;;;;6.82;75.09;101391.78;5020267;28;20409;-81
2020/12/19 03:25:16;;;;;;;45.28;19.60;;;;;;;6.81;75.29;101384.75;5034751;28;20099;-81
2020/12/19 03:27:44;;;;;;;44.58;20.08;;;;;;;6.79;75.20;101381.28;5047867;28;20049;-80
2020/12/19 03:30:10;;;;;;;43.25;20.25;;;;;;;6.76;74.89;101376.13;5037062;28;20050;-80
2020/12/19 03:32:36;;;;;;;45.22;19.98;;;;;;;6.71;74.55;101372.69;5018959;28;20041;-81
2020/12/19 03:35:03;;;;;;;49.20;20.27;;;;;;;6.67;74.60;101376.28;5036752;28;20050;-80
2020/12/19 03:37:29;;;;;;;46.95;19.98;;;;;;;6.64;75.02;101371.09;5028672;28;20042;-80
2020/12/19 03:39:55;;;;;;;41.28;18.88;;;;;;;6.63;75.32;101369.38;5032169;28;20046;-81
2020/12/19 03:42:21;;;;;;;41.00;19.13;;;;;;;6.61;74.97;101360.59;5013466;28;20054;-81
2020/12/19 03:44:47;;;;;;;44.53;19.60;;;;;;;6.60;75.00;101358.88;5027644;28;20042;-81
2020/12/19 03:47:13;;;;;;;41.15;18.88;;;;;;;6.58;75.27;101350.16;5030642;28;20076;-80
2020/12/19 03:49:39;;;;;;;40.70;19.65;;;;;;;6.57;74.88;101353.69;5027572;28;20421;-81
2020/12/19 03:52:05;;;;;;;42.10;19.98;;;;;;;6.56;74.91;101351.97;5029017;28;20045;-81
2020/12/19 03:54:31;;;;;;;42.80;19.08;;;;;;;6.53;74.96;101352.00;5041323;28;20070;-81
2020/12/19 03:56:57;;;;;;;43.38;20.17;;;;;;;6.53;74.99;101349.38;5012987;28;20140;-81
2020/12/19 03:59:23;;;;;;;44.60;19.98;;;;;;;6.53;74.90;101336.22;5027221;28;20073;-81
2020/12/19 04:01:49;;;;;;;44.83;19.77;;;;;;;6.54;75.30;101330.06;5029712;28;20045;-81
2020/12/19 04:04:15;;;;;;;43.17;20.42;;;;;;;6.55;75.21;101329.16;5028516;28;20037;-80
2020/12/19 04:06:57;;;;;;;43.60;19.80;;;;;;;6.57;75.47;101322.09;5045556;28;20135;-81
2020/12/19 04:09:23;;;;;;;44.00;19.17;;;;;;;6.56;75.08;101325.66;5028359;28;20409;-81
2020/12/19 04:11:49;;;;;;;36.47;17.48;;;;;;;6.56;74.88;101320.38;5040564;28;20057;-81
2020/12/19 04:14:15;;;;;;;43.33;20.02;;;;;;;6.56;74.89;101321.25;5026687;28;20045;-81
2020/12/19 04:16:41;;;;;;;47.58;20.65;;;;;;;6.54;74.98;101317.78;5045594;28;20041;-80
2020/12/19 04:19:07;;;;;;;38.92;18.83;;;;;;;6.54;74.98;101316.91;5045405;28;20041;-81
2020/12/19 04:21:33;;;;;;;45.72;19.92;;;;;;;6.55;75.04;101313.38;5009132;28;20485;-81
2020/12/19 04:23:59;;;;;;;41.75;18.92;;;;;;;6.54;75.03;101309.03;5047103;28;20124;-81
2020/12/19 04:26:25;;;;;;;42.33;19.48;;;;;;;6.53;75.26;101304.66;5026162;28;20133;-81
2020/12/19 04:28:51;;;;;;;42.40;19.02;;;;;;;6.56;75.18;101301.97;5038458;28;20061;-81
2020/12/19 04:31:18;;;;;;;40.60;19.23;;;;;;;6.59;75.30;101309.78;5011839;28;20041;-81
2020/12/19 04:33:44;;;;;;;41.85;19.33;;;;;;;6.59;75.22;101300.13;5030731;28;20095;-81
2020/12/19 04:36:10;;;;;;;46.17;18.75;;;;;;;6.61;75.11;101307.97;5024591;28;20458;-81
2020/12/19 04:38:36;;;;;;;44.42;19.17;;;;;;;6.64;75.33;101297.38;5028525;28;20046;-81
2020/12/19 04:41:03;;;;;;;42.70;19.38;;;;;;;6.62;75.47;101299.19;5042074;28;20041;-80
2020/12/19 04:43:29;;;;;;;38.47;17.45;;;;;;;6.62;75.32;101286.03;5051443;28;20049;-81
2020/12/19 04:45:55;;;;;;;40.78;18.52;;;;;;;6.64;75.30;101292.13;5022671;28;20045;-81
2020/12/19 04:48:23;;;;;;;41.17;19.02;;;;;;;6.66;75.42;101292.97;5040123;28;20136;-80
2020/12/19 04:50:50;;;;;;;39.97;18.85;;;;;;;6.69;75.67;101287.63;5036916;28;20049;-81
2020/12/19 04:53:21;;;;;;;45.55;19.75;;;;;;;6.70;75.45;101281.44;5034216;28;20044;-81
2020/12/19 04:55:48;;;;;;;41.42;18.08;;;;;;;6.70;75.08;101275.34;5038251;28;20041;-81
2020/12/19 04:58:20;;;;;;;38.17;17.65;;;;;;;6.67;75.10;101276.28;5023633;28;20052;-81
2020/12/19 05:00:47;;;;;;;43.20;18.90;;;;;;;6.70;75.56;101275.34;5020302;28;20455;-81
2020/12/19 05:03:14;;;;;;;41.17;18.23;;;;;;;6.70;75.27;101265.66;5019295;28;20050;-82
2020/12/19 05:05:42;;;;;;;35.60;18.25;;;;;;;6.71;75.52;101267.41;5033619;28;20046;-80
2020/12/19 05:08:08;;;;;;;34.20;16.67;;;;;;;6.72;75.54;101268.25;5033145;28;20044;-81
2020/12/19 05:10:35;;;;;;;40.25;17.95;;;;;;;6.73;75.26;101259.47;5013363;28;20038;-80
2020/12/19 05:13:01;;;;;;;43.15;18.40;;;;;;;6.73;75.14;101259.47;5030651;28;20104;-81
2020/12/19 05:15:27;;;;;;;37.25;18.17;;;;;;;6.71;75.19;101256.88;5027774;28;20045;-81
2020/12/19 05:17:54;;;;;;;38.67;18.50;;;;;;;6.71;75.48;101262.16;5030155;28;20049;-80
2020/12/19 05:20:22;;;;;;;36.10;17.65;;;;;;;6.74;75.39;101262.09;5042043;28;20042;-81
2020/12/19 05:22:49;;;;;;;42.33;18.70;;;;;;;6.75;75.39;101263.81;5027898;28;20363;-81
2020/12/19 05:25:17;;;;;;;37.90;18.63;;;;;;;6.74;74.94;101262.09;5027060;28;20513;-81
2020/12/19 05:27:45;;;;;;;39.35;17.95;;;;;;;6.71;75.23;101262.16;5027509;28;20050;-81
2020/12/19 05:30:12;;;;;;;36.33;17.67;;;;;;;6.71;75.21;101256.03;5026669;28;20049;-81
2020/12/19 05:32:46;;;;;;;37.13;17.65;;;;;;;6.69;75.24;101258.69;5025641;28;20037;-81
2020/12/19 05:35:14;;;;;;;39.47;17.00;;;;;;;6.69;75.26;101258.69;5049629;28;20053;-80
2020/12/19 05:38:01;;;;;;;35.00;16.10;;;;;;;6.70;75.06;101252.50;5027184;28;20425;-81
2020/12/19 05:40:29;;;;;;;38.75;18.08;;;;;;;6.70;75.47;101249.88;5027212;28;20056;-81
2020/12/19 05:42:58;;;;;;;37.60;17.50;;;;;;;6.73;75.33;101255.06;5040655;28;20046;-81
2020/12/19 05:45:27;;;;;;;38.67;17.52;;;;;;;6.72;75.19;101248.06;5027280;28;20053;-81
2020/12/19 05:47:53;;;;;;;33.47;15.75;;;;;;;6.73;75.22;101236.66;5028939;28;20042;-81
2020/12/19 05:50:21;;;;;;;35.25;16.67;;;;;;;6.73;75.32;101244.56;5026065;28;20046;-81
2020/12/19 05:52:47;;;;;;;37.60;17.30;;;;;;;6.76;75.45;101240.97;5038110;28;20042;-81
2020/12/19 05:55:15;;;;;;;33.17;16.10;;;;;;;6.78;75.59;101247.94;5026708;28;20056;-81
2020/12/19 05:57:42;;;;;;;33.25;16.13;;;;;;;6.81;75.25;101242.59;5028065;28;20046;-82
2020/12/19 06:00:13;;;;;;;30.38;15.25;;;;;;;6.82;75.33;101233.81;5061565;22;20044;-86
2020/12/19 06:02:40;;;;;;;30.83;15.85;;;;;;;6.89;75.53;101244.19;5032954;28;20044;-86
2020/12/19 06:05:12;;;;;;;30.02;15.52;;;;;;;6.92;75.55;101238.88;5049591;28;20092;-87
2020/12/19 06:07:43;;;;;;;28.55;14.85;;;;;;;6.94;75.18;101237.06;5042679;28;20075;-86
2020/12/19 06:10:11;;;;;;;29.73;14.77;;;;;;;6.94;75.21;101226.53;5033451;28;20056;-87
2020/12/19 06:13:10;;;;;;;27.77;14.48;;;;;;;6.95;75.57;101222.97;5032875;28;20041;-86
2020/12/19 06:16:07;;;;;;;26.33;13.55;;;;;;;6.98;75.58;101228.19;5011151;28;20050;-87
2020/12/19 06:18:49;;;;;;;28.20;13.85;;;;;;;7.01;75.32;101228.13;5032073;28;20068;-85
2020/12/19 06:21:16;;;;;;;24.92;13.73;;;;;;;7.02;75.09;101219.28;5015415;28;20107;-87
2020/12/19 06:23:42;;;;;;;26.40;14.32;;;;;;;7.07;75.29;101217.44;5032115;28;20048;-87
2020/12/19 06:26:09;;;;;;;25.17;13.82;;;;;;;7.09;75.49;101220.03;5029106;28;20052;-87
2020/12/19 06:28:38;;;;;;;23.40;13.80;;;;;;;7.15;75.55;101220.72;5017035;28;20050;-87
2020/12/19 06:31:05;;;;;;;25.75;14.35;;;;;;;7.18;75.71;101220.66;5015375;28;20121;-87
2020/12/19 06:33:36;;;;;;;26.63;14.23;;;;;;;7.21;75.59;101231.13;5015376;28;20532;-85
2020/12/19 06:36:13;;;;;;;28.60;15.50;;;;;;;7.22;75.39;101243.38;5016157;28;20049;-86
2020/12/19 06:38:44;;;;;;;29.45;14.68;;;;;;;7.21;75.11;101231.13;5029669;28;20061;-85
2020/12/19 06:41:30;;;;;;;26.60;14.40;;;;;;;7.21;75.32;101231.13;5032595;28;20029;-87
2020/12/19 06:44:08;;;;;;;25.30;13.70;;;;;;;7.20;75.08;101229.38;5046389;28;20521;-86
2020/12/19 06:46:34;;;;;;;27.25;13.52;;;;;;;7.21;75.23;101231.13;5027853;28;20046;-87
2020/12/19 06:49:00;;;;;;;26.38;14.02;;;;;;;7.24;75.31;101229.31;5033386;28;20041;-86
2020/12/19 06:51:26;;;;;;;23.98;13.95;;;;;;;7.26;75.25;101227.50;5031771;28;20053;-87
2020/12/19 06:53:55;;;;;;;24.25;12.98;;;;;;;7.29;75.24;101233.56;5032043;28;20046;-86
2020/12/19 06:56:26;;;;;;;24.85;13.05;;;;;;;7.32;75.44;101222.06;5031903;28;20041;-87
2020/12/19 06:59:00;;;;;;;27.75;13.93;;;;;;;7.36;75.32;101223.72;5019071;28;20053;-86
2020/12/19 07:01:28;;;;;;;29.83;14.50;;;;;;;7.35;74.96;101214.09;5035989;28;20037;-87
2020/12/19 07:03:55;;;;;;;26.48;13.85;;;;;;;7.37;75.35;101220.19;5018350;28;20057;-86
2020/12/19 07:06:21;;;;;;;26.73;13.57;;;;;;;7.38;75.29;101219.28;5033984;28;20489;-86
2020/12/19 07:08:50;;;;;;;28.67;14.20;;;;;;;7.40;75.26;101217.47;5048328;28;20053;-87
2020/12/19 07:11:32;;;;;;;26.33;14.32;;;;;;;7.43;75.13;101214.75;5032326;28;20056;-86
2020/12/19 07:13:59;;;;;;;26.30;14.75;;;;;;;7.45;75.02;101217.38;5035427;28;20489;-87
2020/12/19 07:16:45;;;;;;;24.52;14.70;;;;;;;7.45;74.92;101217.38;5019091;28;20048;-87
2020/12/19 07:19:28;;;;;;;29.40;14.70;;;;;;;7.44;75.23;101216.50;5020101;28;20048;-86
2020/12/19 07:21:56;;;;;;;26.00;14.15;;;;;;;7.44;74.89;101220.88;5018709;28;20041;-87
2020/12/19 07:24:23;;;;;;;30.20;15.05;;;;;;;7.44;75.07;101221.78;5035560;28;20049;-87
2020/12/19 07:26:50;;;;;;;29.45;14.50;;;;;;;7.43;75.04;101220.03;5017432;28;20386;-86
2020/12/19 07:29:22;;;;;;;31.25;15.85;;;;;;;7.43;74.90;101241.13;5015834;28;20050;-86
2020/12/19 07:31:53;;;;;;;30.23;15.98;;;;;;;7.42;74.54;101228.81;5014964;28;20452;-86
2020/12/19 07:34:21;;;;;;;28.80;15.15;;;;;;;7.42;74.91;101234.09;5016930;28;20459;-87
2020/12/19 07:36:50;;;;;;;29.38;16.08;;;;;;;7.41;74.74;101232.38;5015618;28;20060;-86
2020/12/19 07:39:17;;;;;;;30.60;15.65;;;;;;;7.43;74.80;101230.56;5017252;28;20049;-85
2020/12/19 07:41:47;;;;;;;25.17;14.45;;;;;;;7.45;74.84;101238.44;5017436;28;20048;-86
2020/12/19 07:44:20;;;;;;;25.67;13.15;;;;;;;7.45;74.96;101234.03;5016018;28;20582;-85
2020/12/19 07:46:50;;;;;;;27.70;14.60;;;;;;;7.51;75.24;101227.75;5017636;28;20045;-86
2020/12/19 07:49:31;;;;;;;26.02;14.68;;;;;;;7.56;75.53;101226.72;5012699;28;20049;-86
2020/12/19 07:52:26;;;;;;;25.02;14.25;;;;;;;7.62;75.24;101230.09;5045228;28;20049;-87
2020/12/19 07:55:03;;;;;;;27.60;14.88;;;;;;;7.66;75.34;101226.47;5031487;28;20045;-86
2020/12/19 07:57:32;;;;;;;24.55;14.52;;;;;;;7.69;75.38;101231.66;5015950;28;20046;-86
2020/12/19 08:00:00;;;;;;;26.08;14.32;;;;;;;7.72;75.07;101221.03;5033561;28;20065;-86
2020/12/19 08:02:26;;;;;;;24.52;12.57;;;;;;;7.79;75.10;101222.59;5017176;28;20052;-87
2020/12/19 08:04:55;;;;;;;28.15;14.82;;;;;;;7.81;75.31;101220.78;5034534;28;20060;-85
2020/12/19 08:07:27;;;;;;;26.05;14.25;;;;;;;7.86;75.19;101224.16;5016005;28;20045;-86
2020/12/19 08:10:04;;;;;;;27.10;14.82;;;;;;;7.89;75.13;101224.09;5017391;28;20045;-87
2020/12/19 08:12:30;;;;;;;26.08;13.75;;;;;;;7.96;75.41;101225.63;5017912;28;20076;-85
2020/12/19 08:14:59;;;;;;;24.15;14.75;;;;;;;8.01;75.18;101227.28;5017784;28;20045;-86
2020/12/19 08:17:26;;;;;;;28.67;14.05;;;;;;;8.06;75.33;101225.38;5033812;28;20144;-88
2020/12/19 08:19:56;;;;;;;25.77;14.75;;;;;;;8.12;75.12;101225.22;5033405;28;20058;-86
2020/12/19 08:22:23;;;;;;;23.17;14.93;;;;;;;8.17;75.09;101215.38;5030800;28;20489;-87
2020/12/19 08:24:59;;;;;;;20.55;11.93;;;;;;;8.21;75.15;101209.09;5017019;28;20046;-87
2020/12/19 08:27:27;;;;;;;23.08;13.65;;;;;;;8.29;75.23;101212.38;5032563;28;20069;-88
2020/12/19 08:30:06;;;;;;;27.67;15.05;;;;;;;8.36;75.39;101202.50;5031497;28;20053;-87
2020/12/19 08:32:34;;;;;;;22.30;13.82;;;;;;;8.44;75.21;101204.94;5014691;28;20049;-87
2020/12/19 08:35:01;;;;;;;24.40;14.80;;;;;;;8.52;75.26;101202.94;5015994;28;20045;-86
2020/12/19 08:37:28;;;;;;;24.67;13.77;;;;;;;8.57;75.18;101201.03;5033065;28;20048;-87
2020/12/19 08:40:12;;;;;;;25.90;14.73;;;;;;;8.65;75.16;101204.28;5014828;28;20516;-87
2020/12/19 08:42:43;;;;;;;23.23;14.00;;;;;;;8.81;75.49;101201.16;5031179;28;20091;-86
2020/12/19 08:45:34;;;;;;;24.33;15.10;;;;;;;8.94;75.28;101205.13;5019506;28;20072;-87
2020/12/19 08:48:17;;;;;;;23.42;14.57;;;;;;;9.01;75.29;101196.09;5047218;28;20416;-87
2020/12/19 08:50:44;;;;;;;26.40;15.15;;;;;;;9.10;75.52;101201.06;5012018;28;20100;-86
2020/12/19 08:53:19;;;;;;;24.58;14.45;;;;;;;9.20;75.24;101200.78;5033686;28;20130;-86
2020/12/19 08:55:46;;;;;;;21.33;13.25;;;;;;;9.27;74.88;101197.88;5030663;28;20132;-88
2020/12/19 08:58:26;;;;;;;23.42;14.57;;;;;;;9.36;74.95;101207.25;5014254;28;20056;-87
2020/12/19 09:00:54;;;;;;;20.83;13.35;;;;;;;9.46;74.93;101213.97;5014769;28;20045;-87
2020/12/19 09:03:32;;;;;;;23.17;14.38;;;;;;;9.55;75.35;101202.22;5016537;28;20038;-86
2020/12/19 09:06:04;;;;;;;21.30;13.57;;;;;;;9.64;74.91;101203.66;5015298;28;20041;-87
2020/12/19 09:08:32;;;;;;;23.58;14.32;;;;;;;9.72;75.03;101210.41;5016134;28;20532;-89
2020/12/19 09:10:59;;;;;;;24.17;14.60;;;;;;;9.82;74.88;101210.94;5029333;28;20041;-87
2020/12/19 09:13:25;;;;;;;24.55;14.50;;;;;;;9.89;75.03;101212.44;5030489;28;20045;-87
2020/12/19 09:15:56;;;;;;;21.08;14.85;;;;;;;9.98;74.65;101218.31;5015439;28;20424;-89
2020/12/19 09:18:32;;;;;;;23.00;14.15;;;;;;;10.05;74.60;101217.19;5045380;28;20041;-88
2020/12/19 09:20:59;;;;;;;;;;;;;;;10.15;74.63;101213.25;5015087;28;20063;-88
2020/12/19 09:23:26;;;;;;;22.70;13.40;;;;;;;10.23;74.38;101221.78;5014730;28;19928;-87
2020/12/19 09:25:54;;;;;;;21.92;14.77;;;;;;;10.30;74.57;101222.41;5007692;28;20057;-87
2020/12/19 09:28:22;;;;;;;24.88;14.88;;;;;;;10.38;74.48;101224.78;5031201;28;20045;-89
2020/12/19 09:30:49;;;;;;;21.52;14.10;;;;;;;10.47;74.60;101212.09;5015722;28;20049;-87
2020/12/19 09:33:16;;;;;;;20.33;14.13;;;;;;;10.79;74.61;101214.38;5032072;28;20045;-88
2020/12/19 09:35:42;;;;;;;24.50;14.73;;;;;;;11.34;75.15;101217.44;5014206;28;20053;-88
2020/12/19 09:38:08;;;;;;;20.83;13.18;;;;;;;11.91;74.74;101211.47;5031297;28;20586;-87
2020/12/19 09:40:34;;;;;;;22.00;13.88;;;;;;;12.46;74.46;101214.25;5031845;28;20041;-88
2020/12/19 09:43:00;;;;;;;19.42;13.57;;;;;;;13.00;74.09;101212.53;5016373;28;20041;-88
2020/12/19 09:45:26;;;;;;;18.40;12.80;;;;;;;13.52;72.95;101200.22;5031537;28;20071;-87
2020/12/19 09:47:57;;;;;;;18.90;12.50;;;;;;;14.00;71.68;101206.56;5024770;28;20524;-88
2020/12/19 09:50:24;;;;;;;15.90;12.25;;;;;;;14.44;70.78;101205.94;5017966;28;20046;-87
2020/12/19 09:52:50;;;;;;;18.65;12.10;;;;;;;14.86;69.70;101200.97;5033418;28;20050;-88
2020/12/19 09:55:16;;;;;;;16.42;12.25;;;;;;;15.26;68.51;101204.88;5038700;28;20444;-88
2020/12/19 09:57:42;;;;;;;15.75;11.50;;;;;;;15.63;67.21;101199.97;5015105;28;20052;-88
2020/12/19 10:00:10;;;;;;;15.65;11.50;;;;;;;15.80;65.95;101200.81;5030808;28;20748;-88
2020/12/19 10:02:40;;;;;;;15.52;11.77;;;;;;;15.67;64.71;101198.88;5014679;28;20666;-89
2020/12/19 10:05:07;;;;;;;17.38;11.93;;;;;;;15.44;64.00;101199.38;5038179;28;20068;-87
2020/12/19 10:07:35;;;;;;;16.30;11.70;;;;;;;15.40;64.28;101195.19;5035326;28;20121;-85
2020/12/19 10:10:02;;;;;;;20.45;11.68;;;;;;;15.49;64.52;101194.63;5020921;28;20100;-87
2020/12/19 10:12:28;;;;;;;16.70;11.70;;;;;;;15.50;64.17;101199.00;5025029;28;20060;-86
2020/12/19 10:14:54;;;;;;;17.73;12.65;;;;;;;15.44;63.52;101194.03;5048754;28;20053;-86
2020/12/19 10:17:20;;;;;;;15.90;12.45;;;;;;;15.53;64.08;101197.00;5031846;28;20037;-87
2020/12/19 10:19:46;;;;;;;17.52;13.05;;;;;;;15.90;64.39;101188.63;5015521;28;20056;-87
2020/12/19 10:22:12;;;;;;;16.30;12.00;;;;;;;16.11;63.31;101181.91;5017473;28;20037;-86
2020/12/19 10:24:38;;;;;;;14.77;11.15;;;;;;;16.27;62.76;101164.91;5017890;28;20057;-87
2020/12/19 10:27:04;;;;;;;15.60;11.13;;;;;;;16.72;62.34;101165.56;5032727;28;20041;-86
2020/12/19 10:29:30;;;;;;;17.20;12.30;;;;;;;17.27;62.31;101161.91;5032649;28;20069;-87
2020/12/19 10:31:56;;;;;;;14.38;11.15;;;;;;;17.87;61.04;101162.28;5029132;28;20346;-85
2020/12/19 10:34:22;;;;;;;15.40;11.23;;;;;;;18.49;59.94;101142.63;5048106;28;20085;-85
2020/12/19 10:36:50;;;;;;;15.15;10.90;;;;;;;18.84;58.89;101148.06;5055802;28;20037;-85
2020/12/19 10:39:16;;;;;;;14.57;10.27;;;;;;;19.01;57.60;101145.97;5056883;28;20052;-86
2020/12/19 10:41:49;;;;;;;15.93;10.23;;;;;;;18.90;56.40;101137.84;5039409;28;20033;-85
2020/12/19 10:44:16;;;;;;;13.13;10.40;;;;;;;18.81;56.63;101140.25;5054833;28;20076;-87
2020/12/19 10:46:43;;;;;;;15.90;10.40;;;;;;;18.49;56.43;101146.16;5049022;28;20045;-86
2020/12/19 10:49:09;;;;;;;13.27;10.07;;;;;;;18.01;56.58;101130.00;5055607;28;20106;-86
2020/12/19 10:51:35;;;;;;;15.55;9.68;;;;;;;17.52;57.25;101123.56;5054871;28;20021;-85
2020/12/19 10:54:01;;;;;;;13.05;10.02;;;;;;;17.12;57.63;101136.16;5038570;28;20042;-85
2020/12/19 10:56:27;;;;;;;14.55;9.77;;;;;;;16.78;58.50;101125.03;5054534;28;20044;-85
2020/12/19 10:58:53;;;;;;;14.60;10.15;;;;;;;16.54;58.98;101124.84;5037476;28;20105;-85
2020/12/19 11:01:19;;;;;;;14.43;10.43;;;;;;;16.45;59.58;101126.31;5056040;28;20049;-85
2020/12/19 11:03:46;;;;;;;13.27;10.25;;;;;;;16.47;59.97;101119.03;5055941;28;20109;-85
2020/12/19 11:06:24;;;;;;;12.65;9.25;;;;;;;16.51;59.65;101109.00;5053831;28;20032;-86
2020/12/19 11:08:51;;;;;;;11.93;9.13;;;;;;;16.62;59.66;101110.97;5030534;28;20471;-87
2020/12/19 11:11:25;;;;;;;;;;;;;;;16.59;60.96;101100.47;5036189;28;20046;-86
2020/12/19 11:13:51;;;;;;;12.70;9.23;;;;;;;16.73;60.38;101103.94;5048747;28;19921;-86
2020/12/19 11:16:21;;;;;;;11.60;9.45;;;;;;;16.72;59.50;101101.38;5050763;28;20049;-85
2020/12/19 11:18:47;;;;;;;12.65;9.45;;;;;;;16.54;59.48;101098.97;5036627;28;20034;-87
2020/12/19 11:21:14;;;;;;;12.82;9.68;;;;;;;16.40;60.16;101093.66;5036108;28;20057;-87
2020/12/19 11:23:40;;;;;;;11.90;9.27;;;;;;;16.34;60.06;101092.25;5064341;28;20056;-87